الصفحة الرئيسية
METAR-TAF:

METAR-TAF

مطار :

توسان, أريزونا, الولايات المتحدة

دائرة عرض: 32-24-34N, خط طول: 111-13-06W, ارتفاع: 619 متر

مراقبة الطقس الحالي

تاريخ ووقت الإصدار 24 دقيقة قبل الساعة 10:15UTC
ريح 11 عقدة من الشرق/الجنوب الشرقي تتزايد حتى 18 عقدة
درجة الحرارة 28°درجة مئوية
الرطوبة 16%
ضغط 1017 hPa
الرؤية: 16.1 كم
سماء صافية

METAR: KAVQ 291015Z AUTO 11011G18KT 10SM CLR 28/00 A3002 RMK AO2 T02781004

زمن: 03:39 (10:39 UTC)


TAF: مفقودة

أرصاد الطقس والتوقعات من أكثر من 4000 مطار (تقارير الطقس للمطار METAR والتنبؤ بالطقس بالمطارTAF).

المحطات المتاحة هي النقط الصفراء والحمراء على الخريطة.

حرك المؤشر فوق النقطة لمعرفة اسم المحطة.

ثم انقر لمعرفة أرصاد وتوقعات الطقس.

لتغيير الخارطة: اضغط على الأزرار الخضراء مع رمز الصليب الأسود للتكبير. على الزر الأخضر مع شرطة للتصغير، أو على الأسهم الخضراء للخرائط المجاورة.


METAR-TAF: